createdAt,value
2022-08-19T00:03:12.473Z,22.70
2022-08-19T00:05:39.691Z,22.80
2022-08-19T00:12:50.760Z,22.80
2022-08-19T00:15:20.320Z,22.80
2022-08-19T00:17:47.376Z,22.90
2022-08-19T00:21:10.832Z,22.90
2022-08-19T00:31:08.070Z,22.80
2022-08-19T00:33:35.805Z,22.70
2022-08-19T00:36:07.172Z,22.80
2022-08-19T00:38:37.835Z,22.70
2022-08-19T00:41:06.940Z,22.80
2022-08-19T00:43:34.610Z,22.70
2022-08-19T00:46:05.774Z,22.70
2022-08-19T00:48:34.712Z,22.70
2022-08-19T00:56:04.793Z,22.60
2022-08-19T00:58:34.438Z,22.60
2022-08-19T01:01:02.081Z,22.60
2022-08-19T01:04:25.268Z,22.70
2022-08-19T01:06:52.169Z,22.80
2022-08-19T01:10:15.712Z,22.80
2022-08-19T01:12:42.692Z,22.80
2022-08-19T01:19:07.947Z,22.70
2022-08-19T01:21:47.283Z,22.60
2022-08-19T01:25:14.941Z,22.50
2022-08-19T01:27:44.862Z,22.40
2022-08-19T01:30:23.490Z,22.30
2022-08-19T01:37:45.981Z,22.30
2022-08-19T01:40:13.502Z,22.20
2022-08-19T01:42:41.585Z,22.10
2022-08-19T01:49:14.040Z,22.10
2022-08-19T01:51:41.128Z,22.20
2022-08-19T01:54:09.629Z,22.20
2022-08-19T01:57:33.247Z,22.20
2022-08-19T02:00:01.173Z,22.20
2022-08-19T02:02:28.019Z,22.20
2022-08-19T02:05:51.360Z,22.10
2022-08-19T02:08:18.239Z,22.00
2022-08-19T02:10:45.406Z,22.00
2022-08-19T02:14:08.512Z,22.00
2022-08-19T02:16:36.829Z,22.10
2022-08-19T02:20:00.415Z,22.10
2022-08-19T02:22:27.381Z,22.10
2022-08-19T02:24:55.234Z,22.10
2022-08-19T02:28:19.231Z,22.20
2022-08-19T02:30:47.538Z,22.10
2022-08-19T02:33:14.895Z,22.20
2022-08-19T02:36:42.302Z,22.20
2022-08-19T02:39:10.446Z,22.20
2022-08-19T02:41:37.754Z,22.10
2022-08-19T02:44:28.883Z,22.10
2022-08-19T02:46:52.665Z,22.10
2022-08-19T02:54:23.600Z,21.90
2022-08-19T02:56:50.799Z,21.80
2022-08-19T02:59:17.650Z,21.90
2022-08-19T03:02:46.390Z,21.80
2022-08-19T03:05:13.971Z,21.80
2022-08-19T03:07:40.790Z,21.70
2022-08-19T03:11:04.087Z,21.70
2022-08-19T03:13:31.219Z,21.50
2022-08-19T03:16:54.765Z,21.50
2022-08-19T03:19:22.475Z,21.60
2022-08-19T03:25:45.736Z,21.40
2022-08-19T03:28:13.820Z,21.40
2022-08-19T03:31:43.632Z,21.40
2022-08-19T03:34:18.712Z,21.40
2022-08-19T03:36:47.163Z,21.20
2022-08-19T03:43:32.052Z,21.20
2022-08-19T03:46:08.973Z,21.10
2022-08-19T03:53:37.440Z,21.00
2022-08-19T03:56:04.676Z,20.90
2022-08-19T03:58:31.783Z,20.90
2022-08-19T04:01:55.626Z,20.80
2022-08-19T04:04:24.669Z,20.70
2022-08-19T04:06:52.402Z,20.70
2022-08-19T04:10:15.941Z,20.60
2022-08-19T04:12:42.859Z,20.50
2022-08-19T04:15:10.206Z,20.60
2022-08-19T04:18:36.337Z,20.60
2022-08-19T04:21:03.952Z,20.50
2022-08-19T04:24:27.094Z,20.50
2022-08-19T04:26:54.120Z,20.50
2022-08-19T04:29:26.014Z,20.50
2022-08-19T04:32:50.010Z,20.50
2022-08-19T04:35:19.399Z,20.40
2022-08-19T04:37:48.966Z,20.40
2022-08-19T04:41:12.621Z,20.40
2022-08-19T04:43:40.246Z,20.30
2022-08-19T04:46:09.912Z,20.30
2022-08-19T04:49:33.379Z,20.30
2022-08-19T04:52:00.327Z,20.30
2022-08-19T04:54:37.506Z,20.40
2022-08-19T04:58:02.567Z,20.40
2022-08-19T05:00:29.560Z,20.50
2022-08-19T05:02:56.406Z,20.50
2022-08-19T05:06:19.696Z,20.50
2022-08-19T05:08:46.868Z,20.60
2022-08-19T05:12:10.768Z,20.70
2022-08-19T05:14:37.567Z,20.70
2022-08-19T05:17:26.157Z,20.80
2022-08-19T05:21:05.999Z,20.80
2022-08-19T05:23:32.872Z,20.90
2022-08-19T05:25:59.603Z,21.00
2022-08-19T05:29:22.931Z,21.10
2022-08-19T05:31:50.402Z,21.20
2022-08-19T05:34:20.542Z,21.20
2022-08-19T05:37:43.632Z,21.20
2022-08-19T05:40:11.391Z,21.20
2022-08-19T05:42:38.717Z,21.30
2022-08-19T05:50:09.239Z,21.60
2022-08-19T05:52:39.356Z,21.60
2022-08-19T06:00:09.419Z,21.80
2022-08-19T06:02:36.693Z,21.90
2022-08-19T06:05:10.099Z,21.90
2022-08-19T06:12:40.056Z,22.00
2022-08-19T06:15:14.371Z,22.10
2022-08-19T06:17:42.923Z,22.10
2022-08-19T06:24:47.691Z,22.10
2022-08-19T06:27:14.751Z,22.00
2022-08-19T06:29:41.838Z,21.90
2022-08-19T06:33:05.606Z,21.90
2022-08-19T06:35:32.602Z,21.80
2022-08-19T06:38:00.362Z,21.90
2022-08-19T06:41:23.946Z,21.90
2022-08-19T06:43:52.548Z,22.00
2022-08-19T06:46:21.641Z,22.00
2022-08-19T06:49:45.197Z,22.10
2022-08-19T06:52:16.970Z,22.00
2022-08-19T06:54:56.007Z,22.20
2022-08-19T06:58:20.218Z,22.30
2022-08-19T07:00:46.967Z,22.20
2022-08-19T07:03:13.953Z,22.30
2022-08-19T07:06:43.168Z,22.40
2022-08-19T07:09:14.633Z,22.30
2022-08-19T07:12:42.137Z,22.60
2022-08-19T07:15:10.875Z,22.80
2022-08-19T07:18:16.354Z,23.10
2022-08-19T07:20:44.050Z,23.30
2022-08-19T07:23:16.160Z,23.20
2022-08-19T07:26:40.090Z,23.20
2022-08-19T07:29:10.485Z,23.50
2022-08-19T07:31:38.452Z,23.80
2022-08-19T07:35:02.217Z,24.00
2022-08-19T07:37:33.183Z,23.90
2022-08-19T07:44:27.310Z,24.10
2022-08-19T07:46:57.044Z,24.40
2022-08-19T07:54:20.359Z,24.50
2022-08-19T07:56:47.470Z,24.50
2022-08-19T07:59:14.491Z,24.50
2022-08-19T08:01:41.980Z,24.50
2022-08-19T08:04:28.094Z,24.70
2022-08-19T08:07:51.432Z,24.70
2022-08-19T08:10:21.179Z,24.70
2022-08-19T08:17:49.802Z,24.80
2022-08-19T08:20:19.777Z,24.80
2022-08-19T08:27:43.701Z,25.20
2022-08-19T08:30:17.263Z,25.50
2022-08-19T08:32:45.817Z,25.50
2022-08-19T08:40:13.181Z,25.30
2022-08-19T08:42:48.340Z,25.00
2022-08-19T08:45:18.892Z,25.10
2022-08-19T08:47:50.973Z,25.30
2022-08-19T08:50:36.653Z,25.50
2022-08-19T08:53:06.520Z,25.80
2022-08-19T08:55:36.848Z,26.20
2022-08-19T08:58:28.763Z,26.40
2022-08-19T09:00:55.750Z,26.80
2022-08-19T09:03:31.413Z,27.10
2022-08-19T09:06:04.416Z,27.50
2022-08-19T09:08:48.506Z,27.50
2022-08-19T09:11:44.768Z,27.60
2022-08-19T09:14:52.325Z,27.50
2022-08-19T09:17:29.244Z,27.60
2022-08-19T09:20:09.780Z,27.40
2022-08-19T09:22:38.691Z,27.20
2022-08-19T09:26:02.256Z,27.50
2022-08-19T09:28:30.274Z,27.90
2022-08-19T09:30:59.308Z,28.50
2022-08-19T09:33:26.205Z,29.10
2022-08-19T09:36:08.675Z,29.70
2022-08-19T09:38:37.352Z,30.10
2022-08-19T09:41:20.071Z,30.20
2022-08-19T09:43:53.122Z,30.50
2022-08-19T09:46:22.096Z,30.80
2022-08-19T09:48:52.298Z,29.90
2022-08-19T09:51:22.522Z,29.70
2022-08-19T09:53:51.830Z,29.40
2022-08-19T09:56:21.345Z,29.30
2022-08-19T09:58:48.802Z,29.70
2022-08-19T10:01:24.359Z,30.00
2022-08-19T10:03:55.124Z,30.00
2022-08-19T10:06:38.166Z,30.00
2022-08-19T10:09:12.015Z,29.80
2022-08-19T10:11:49.876Z,30.10
2022-08-19T10:14:23.586Z,30.80
2022-08-19T10:16:51.650Z,30.80
2022-08-19T10:19:25.558Z,30.60
2022-08-19T10:21:55.724Z,30.60
2022-08-19T10:24:28.648Z,30.70
2022-08-19T10:26:58.830Z,30.90
2022-08-19T10:29:32.492Z,31.20
2022-08-19T10:32:05.614Z,31.70
2022-08-19T10:34:38.502Z,31.90
2022-08-19T10:37:28.933Z,32.10
2022-08-19T10:39:58.727Z,32.40
2022-08-19T10:42:25.828Z,31.90
2022-08-19T10:44:52.870Z,31.60
2022-08-19T10:47:25.649Z,31.60
2022-08-19T10:50:13.744Z,31.60
2022-08-19T10:52:49.220Z,31.70
2022-08-19T10:55:58.298Z,31.80
2022-08-19T10:58:27.034Z,31.80
2022-08-19T11:00:56.411Z,32.10
2022-08-19T11:03:24.901Z,31.90
2022-08-19T11:06:03.150Z,31.80
2022-08-19T11:08:31.786Z,32.10
2022-08-19T11:11:01.978Z,32.00
2022-08-19T11:13:30.219Z,32.40
2022-08-19T11:16:06.540Z,32.80
2022-08-19T11:18:38.770Z,32.60
2022-08-19T11:21:12.046Z,32.40
2022-08-19T11:23:39.244Z,32.50
2022-08-19T11:27:02.339Z,32.60
2022-08-19T11:29:30.145Z,32.90
2022-08-19T11:31:56.993Z,32.70
2022-08-19T11:34:28.551Z,32.80
2022-08-19T11:36:59.519Z,32.20
2022-08-19T11:39:28.585Z,31.60
2022-08-19T11:41:55.953Z,31.60
2022-08-19T11:44:23.071Z,31.90
2022-08-19T11:46:49.975Z,32.30
2022-08-19T11:49:19.718Z,32.40
2022-08-19T11:51:47.139Z,32.80
2022-08-19T11:54:17.320Z,32.90
2022-08-19T11:56:47.477Z,33.40
2022-08-19T11:59:15.004Z,33.00
2022-08-19T12:01:43.680Z,32.20
2022-08-19T12:04:11.835Z,31.90
2022-08-19T12:06:41.328Z,32.20
2022-08-19T12:09:10.443Z,32.20
2022-08-19T12:11:39.268Z,31.90
2022-08-19T12:14:07.545Z,31.90
2022-08-19T12:16:36.210Z,32.20
2022-08-19T12:19:08.807Z,32.50
2022-08-19T12:21:36.818Z,32.00
2022-08-19T12:24:05.736Z,31.80
2022-08-19T12:27:40.054Z,31.70
2022-08-19T12:30:10.864Z,31.60
2022-08-19T12:32:38.370Z,31.30
2022-08-19T12:35:07.342Z,30.90
2022-08-19T12:37:34.502Z,30.60
2022-08-19T12:40:01.889Z,30.60
2022-08-19T12:42:28.791Z,31.20
2022-08-19T12:44:55.849Z,31.80
2022-08-19T12:47:23.425Z,32.00
2022-08-19T12:49:53.238Z,31.70
2022-08-19T12:52:28.212Z,31.50
2022-08-19T12:54:57.042Z,31.40
2022-08-19T12:57:32.520Z,31.20
2022-08-19T13:00:05.037Z,31.00
2022-08-19T13:02:38.520Z,31.00
2022-08-19T13:05:09.365Z,31.60
2022-08-19T13:07:38.138Z,31.90
2022-08-19T13:10:06.704Z,32.60
2022-08-19T13:12:33.562Z,33.00
2022-08-19T13:15:00.384Z,32.80
2022-08-19T13:17:28.079Z,32.80
2022-08-19T13:19:55.047Z,33.30
2022-08-19T13:22:22.072Z,33.60
2022-08-19T13:24:49.595Z,33.90
2022-08-19T13:28:13.264Z,33.90
2022-08-19T13:31:06.054Z,33.90
2022-08-19T13:33:34.663Z,34.50
2022-08-19T13:36:02.680Z,34.90
2022-08-19T13:38:31.439Z,35.40
2022-08-19T13:41:10.971Z,35.20
2022-08-19T13:43:39.059Z,34.80
2022-08-19T13:46:11.318Z,34.60
2022-08-19T13:48:38.170Z,34.20
2022-08-19T13:51:06.285Z,34.60
2022-08-19T13:53:33.632Z,35.00
2022-08-19T13:56:00.486Z,35.50
2022-08-19T13:58:27.304Z,35.70
2022-08-19T14:00:54.225Z,36.20
2022-08-19T14:03:21.192Z,36.50
2022-08-19T14:05:48.154Z,36.10
2022-08-19T14:08:15.142Z,36.20
2022-08-19T14:10:43.660Z,36.00
2022-08-19T14:13:10.892Z,35.90
2022-08-19T14:15:39.042Z,35.90
2022-08-19T14:18:05.900Z,36.40
2022-08-19T14:20:35.936Z,37.00
2022-08-19T14:23:04.240Z,36.90
2022-08-19T14:25:32.188Z,36.40
2022-08-19T14:27:59.977Z,36.10
2022-08-19T14:30:33.370Z,36.40
2022-08-19T14:33:01.887Z,35.90
2022-08-19T14:36:25.238Z,36.10
2022-08-19T14:38:52.136Z,36.60
2022-08-19T14:41:24.270Z,35.90
2022-08-19T14:43:53.142Z,36.00
2022-08-19T14:46:22.429Z,36.30
2022-08-19T14:48:50.749Z,36.40
2022-08-19T14:51:21.580Z,36.50
2022-08-19T14:53:51.693Z,36.40
2022-08-19T14:56:22.393Z,36.20
2022-08-19T14:58:52.618Z,36.30
2022-08-19T15:01:21.586Z,36.60
2022-08-19T15:03:50.179Z,36.70
2022-08-19T15:06:17.197Z,36.70
2022-08-19T15:08:45.770Z,36.80
2022-08-19T15:11:16.710Z,36.50
2022-08-19T15:13:45.417Z,36.50
2022-08-19T15:16:17.909Z,36.40
2022-08-19T15:18:46.832Z,36.60
2022-08-19T15:21:17.475Z,36.40
2022-08-19T15:23:54.770Z,36.30
2022-08-19T15:26:22.268Z,36.10
2022-08-19T15:28:49.269Z,35.90
2022-08-19T15:31:25.296Z,36.00
2022-08-19T15:33:58.945Z,35.90
2022-08-19T15:37:22.405Z,36.20
2022-08-19T15:39:49.211Z,35.60
2022-08-19T15:42:16.642Z,35.50
2022-08-19T15:45:01.512Z,35.30
2022-08-19T15:47:34.634Z,35.20
2022-08-19T15:50:23.748Z,35.20
2022-08-19T15:52:54.017Z,34.90
2022-08-19T15:55:33.426Z,34.80
2022-08-19T15:58:29.939Z,34.50
2022-08-19T16:01:26.859Z,34.20
2022-08-19T16:04:16.105Z,34.50
2022-08-19T16:06:48.833Z,34.90
2022-08-19T16:09:17.062Z,35.00
2022-08-19T16:11:46.368Z,35.10
2022-08-19T16:14:18.613Z,34.70
2022-08-19T16:16:47.625Z,34.40
2022-08-19T16:19:16.963Z,34.40
2022-08-19T16:21:46.223Z,34.20
2022-08-19T16:24:16.019Z,34.00
2022-08-19T16:26:44.301Z,33.90
2022-08-19T16:29:13.035Z,33.70
2022-08-19T16:31:41.981Z,33.60
2022-08-19T16:34:08.891Z,33.40
2022-08-19T16:36:36.083Z,33.50
2022-08-19T16:44:00.892Z,33.20
2022-08-19T16:46:27.841Z,33.00
2022-08-19T16:48:54.843Z,33.20
2022-08-19T16:51:23.010Z,33.20
2022-08-19T16:53:52.616Z,33.00
2022-08-19T16:56:20.459Z,33.10
2022-08-19T16:58:48.669Z,33.00
2022-08-19T17:01:15.532Z,33.10
2022-08-19T17:03:42.412Z,32.70
2022-08-19T17:06:19.012Z,32.70
2022-08-19T17:08:49.869Z,32.40
2022-08-19T17:11:19.139Z,32.50
2022-08-19T17:13:47.775Z,32.20
2022-08-19T17:16:25.116Z,32.20
2022-08-19T17:18:54.549Z,32.10
2022-08-19T17:21:29.124Z,32.00
2022-08-19T17:23:57.151Z,31.90
2022-08-19T17:26:25.712Z,31.90
2022-08-19T17:28:55.579Z,32.00
2022-08-19T17:31:28.841Z,32.10
2022-08-19T17:34:03.965Z,31.90
2022-08-19T17:36:34.222Z,31.50
2022-08-19T17:39:58.243Z,31.30
2022-08-19T17:42:36.090Z,31.00
2022-08-19T17:45:07.673Z,30.90
2022-08-19T17:47:36.531Z,31.00
2022-08-19T17:50:07.098Z,31.00
2022-08-19T17:52:34.515Z,30.90
2022-08-19T17:55:02.015Z,30.70
2022-08-19T17:57:28.805Z,30.70
2022-08-19T17:59:55.757Z,30.70
2022-08-19T18:02:24.837Z,30.50
2022-08-19T18:04:52.203Z,30.40
2022-08-19T18:07:22.178Z,30.10
2022-08-19T18:09:52.116Z,29.90
2022-08-19T18:12:24.723Z,29.80
2022-08-19T18:14:51.627Z,29.60
2022-08-19T18:17:19.438Z,29.40
2022-08-19T18:19:47.824Z,29.20
2022-08-19T18:22:27.093Z,29.10
2022-08-19T18:24:55.271Z,28.80
2022-08-19T18:27:22.389Z,28.70
2022-08-19T18:29:49.459Z,28.50
2022-08-19T18:32:23.101Z,28.40
2022-08-19T18:34:51.754Z,28.40
2022-08-19T18:37:19.125Z,28.30
2022-08-19T18:44:43.102Z,28.20
2022-08-19T18:47:28.488Z,28.00
2022-08-19T18:49:55.456Z,27.80
2022-08-19T18:52:26.954Z,27.60
2022-08-19T18:54:53.981Z,27.60
2022-08-19T18:57:24.808Z,27.60
2022-08-19T18:59:56.631Z,27.50
2022-08-19T19:02:24.349Z,27.40
2022-08-19T19:04:51.443Z,27.30
2022-08-19T19:07:18.630Z,27.40
2022-08-19T19:09:50.488Z,27.30
2022-08-19T19:12:18.206Z,27.20
2022-08-19T19:14:49.507Z,27.10
2022-08-19T19:17:17.569Z,27.10
2022-08-19T19:19:44.504Z,26.90
2022-08-19T19:22:14.449Z,27.00
2022-08-19T19:24:45.212Z,27.00
2022-08-19T19:27:13.913Z,26.90
2022-08-19T19:29:41.996Z,26.70
2022-08-19T19:32:19.486Z,26.70
2022-08-19T19:34:46.771Z,26.80
2022-08-19T19:37:14.045Z,26.70
2022-08-19T19:40:37.574Z,26.60
2022-08-19T19:43:06.214Z,26.60
2022-08-19T19:45:33.519Z,26.60
2022-08-19T19:48:00.853Z,26.40
2022-08-19T19:50:31.182Z,26.60
2022-08-19T19:52:58.630Z,26.70
2022-08-19T19:55:26.859Z,26.70
2022-08-19T19:57:54.553Z,26.70
2022-08-19T20:00:22.314Z,26.70
2022-08-19T20:02:50.814Z,26.50
2022-08-19T20:05:20.776Z,26.60
2022-08-19T20:08:06.334Z,26.70
2022-08-19T20:10:33.599Z,26.70
2022-08-19T20:13:02.836Z,26.50
2022-08-19T20:15:32.112Z,26.20
2022-08-19T20:18:00.355Z,26.40
2022-08-19T20:20:28.007Z,26.40
2022-08-19T20:22:55.270Z,26.20
2022-08-19T20:25:22.497Z,25.90
2022-08-19T20:27:49.974Z,25.80
2022-08-19T20:30:20.613Z,25.90
2022-08-19T20:32:48.981Z,25.80
2022-08-19T20:35:18.919Z,25.70
2022-08-19T20:37:46.241Z,25.70
2022-08-19T20:45:32.396Z,25.60
2022-08-19T20:47:56.845Z,25.60
2022-08-19T20:50:23.818Z,25.50
2022-08-19T20:52:52.487Z,25.50
2022-08-19T20:55:22.088Z,25.80
2022-08-19T20:57:49.053Z,25.70
2022-08-19T21:00:16.666Z,25.30
2022-08-19T21:02:43.664Z,25.20
2022-08-19T21:05:11.243Z,25.10
2022-08-19T21:07:39.554Z,24.90
2022-08-19T21:10:07.175Z,24.80
2022-08-19T21:12:34.156Z,24.60
2022-08-19T21:15:01.902Z,24.80
2022-08-19T21:17:28.819Z,24.80
2022-08-19T21:19:55.683Z,24.90
2022-08-19T21:22:22.614Z,24.80
2022-08-19T21:24:49.600Z,24.80
2022-08-19T21:27:16.411Z,24.80
2022-08-19T21:29:43.327Z,24.70
2022-08-19T21:32:14.292Z,24.90
2022-08-19T21:34:46.111Z,24.80
2022-08-19T21:37:19.938Z,24.60
2022-08-19T21:40:48.599Z,24.40
2022-08-19T21:43:16.287Z,24.40
2022-08-19T21:45:43.698Z,24.50
2022-08-19T21:48:12.583Z,24.50
2022-08-19T21:50:39.403Z,24.20
2022-08-19T21:53:06.444Z,24.20
2022-08-19T21:55:33.583Z,24.10
2022-08-19T21:58:01.721Z,24.20
2022-08-19T22:00:32.230Z,24.10
2022-08-19T22:02:59.254Z,24.00
2022-08-19T22:05:26.216Z,24.10
2022-08-19T22:07:58.067Z,24.40
2022-08-19T22:10:32.433Z,24.20
2022-08-19T22:12:59.665Z,24.40
2022-08-19T22:15:29.147Z,24.40
2022-08-19T22:17:58.481Z,24.30
2022-08-19T22:20:28.172Z,24.30
2022-08-19T22:22:58.451Z,24.40
2022-08-19T22:25:31.976Z,24.20
2022-08-19T22:28:01.599Z,24.00
2022-08-19T22:30:33.268Z,23.90
2022-08-19T22:33:02.749Z,23.90
2022-08-19T22:35:32.932Z,23.90
2022-08-19T22:38:00.493Z,23.90
2022-08-19T22:41:24.179Z,24.10
2022-08-19T22:43:51.141Z,24.00
2022-08-19T22:46:17.958Z,23.90
2022-08-19T22:48:46.142Z,23.90
2022-08-19T22:51:32.432Z,24.00
2022-08-19T22:53:59.795Z,24.20
2022-08-19T22:56:26.881Z,24.40
2022-08-19T22:58:54.064Z,24.40
2022-08-19T23:01:23.819Z,24.40
2022-08-19T23:03:56.436Z,24.20
2022-08-19T23:06:23.245Z,23.80
2022-08-19T23:08:56.678Z,23.90
2022-08-19T23:11:23.650Z,23.70
2022-08-19T23:13:50.507Z,24.00
2022-08-19T23:16:17.517Z,23.70
2022-08-19T23:18:45.526Z,23.70
2022-08-19T23:21:12.347Z,23.50
2022-08-19T23:23:39.348Z,24.00
2022-08-19T23:26:06.590Z,23.90
2022-08-19T23:28:57.109Z,24.10
2022-08-19T23:31:26.538Z,24.20
2022-08-19T23:33:53.437Z,24.30
2022-08-19T23:36:21.576Z,24.40
2022-08-19T23:38:50.768Z,24.20
2022-08-19T23:49:37.989Z,24.20
2022-08-19T23:52:05.100Z,24.20
2022-08-19T23:54:42.889Z,24.10
2022-08-19T23:57:13.259Z,24.30
2022-08-19T23:59:42.454Z,24.40
